Time;durP1;ratioP1;P1;durP2;ratioP2;P2;SDS_P1;SDS_P2;PMS_P1;PMS_P2;Temp;Humidity;BMP_temperature;BMP_pressure;BME280_temperature;BME280_humidity;BME280_pressure;Samples;Min_cycle;Max_cycle;Signal;HPM_P1;HPM_P2
2023/05/02 00:01:47;;;;;;;5.95;4.80;;;;;;;14.21;56.45;94935.94;4219536;28;20067;-63
2023/05/02 00:03:49;;;;;;;6.30;4.30;;;;;;;14.22;56.29;94928.84;4219879;28;20048;-62
2023/05/02 00:05:50;;;;;;;5.95;4.57;;;;;;;14.17;56.27;94928.56;4215427;28;20100;-60
2023/05/02 00:07:53;;;;;;;5.50;4.40;;;;;;;14.10;56.29;94933.72;4219617;28;20516;-60
2023/05/02 00:09:54;;;;;;;6.28;4.57;;;;;;;14.07;56.58;94932.28;4226682;28;20122;-61
2023/05/02 00:11:56;;;;;;;7.20;4.53;;;;;;;14.09;56.58;94932.09;4213038;28;20082;-62
2023/05/02 00:13:57;;;;;;;6.63;4.68;;;;;;;14.13;56.99;94928.09;4213283;28;20109;-61
2023/05/02 00:15:59;;;;;;;7.60;4.20;;;;;;;14.16;56.87;94921.69;4213327;28;20047;-60
2023/05/02 00:18:01;;;;;;;5.20;4.30;;;;;;;14.14;56.57;94925.28;4217160;28;20050;-60
2023/05/02 00:20:03;;;;;;;5.85;4.47;;;;;;;14.17;56.44;94929.38;4225265;28;20056;-61
2023/05/02 00:22:05;;;;;;;5.90;4.68;;;;;;;14.19;56.09;94931.84;4222590;28;20085;-61
2023/05/02 00:24:06;;;;;;;7.57;4.28;;;;;;;14.07;56.36;94940.16;4222980;28;20439;-60
2023/05/02 00:26:08;;;;;;;5.07;4.30;;;;;;;14.08;56.73;94940.97;4215419;28;20059;-61
2023/05/02 00:28:10;;;;;;;7.13;4.47;;;;;;;14.08;56.75;94935.72;4223182;28;20468;-61
2023/05/02 00:30:12;;;;;;;4.80;4.20;;;;;;;14.05;56.82;94941.34;4218131;28;20135;-60
2023/05/02 00:32:14;;;;;;;5.85;4.68;;;;;;;14.06;57.04;94943.78;4204202;28;20198;-61
2023/05/02 00:34:16;;;;;;;5.43;4.55;;;;;;;14.14;56.32;94946.38;4223804;28;20082;-59
2023/05/02 00:36:18;;;;;;;6.15;4.22;;;;;;;14.19;56.26;94948.47;4225114;28;20116;-60
2023/05/02 00:38:20;;;;;;;4.32;3.85;;;;;;;14.20;55.92;94952.78;4226198;28;20051;-60
2023/05/02 00:40:22;;;;;;;5.50;4.38;;;;;;;14.18;56.20;94954.75;4226499;28;20537;-60
2023/05/02 00:42:23;;;;;;;4.95;4.10;;;;;;;14.14;56.37;94956.91;4223852;28;20059;-61
2023/05/02 00:44:25;;;;;;;4.97;4.43;;;;;;;14.15;56.25;94963.00;4225627;28;20040;-60
2023/05/02 00:46:27;;;;;;;5.40;4.32;;;;;;;14.07;56.46;94961.25;4217178;28;20067;-60
2023/05/02 00:48:29;;;;;;;4.63;3.88;;;;;;;14.08;56.40;94962.06;4225605;28;20095;-62
2023/05/02 00:50:31;;;;;;;5.88;4.10;;;;;;;14.11;56.50;94965.19;4226345;28;20044;-61
2023/05/02 00:52:33;;;;;;;7.35;4.60;;;;;;;14.11;56.77;94957.28;4228428;28;20036;-60
2023/05/02 00:54:38;;;;;;;7.07;4.22;;;;;;;14.16;56.20;94964.66;4228874;28;20123;-60
2023/05/02 00:56:39;;;;;;;6.57;4.20;;;;;;;14.18;56.28;94962.66;4221415;28;20043;-60
2023/05/02 00:58:42;;;;;;;4.80;4.07;;;;;;;14.18;56.54;94957.38;4218799;28;20117;-60
2023/05/02 01:01:23;;;;;;;4.85;4.18;;;;;;;14.16;56.48;94962.00;4213414;28;20079;-61
2023/05/02 01:03:49;;;;;;;6.20;4.53;;;;;;;14.10;56.89;94952.16;4218010;28;20509;-59
2023/05/02 01:06:07;;;;;;;6.75;4.47;;;;;;;14.10;56.88;94957.44;4197340;28;20048;-60
2023/05/02 01:08:36;;;;;;;5.90;4.47;;;;;;;14.07;56.82;94955.16;4212144;28;20083;-59
2023/05/02 01:10:56;;;;;;;5.90;4.50;;;;;;;13.95;57.51;94953.91;4199366;28;20144;-59
2023/05/02 01:13:01;;;;;;;6.63;4.70;;;;;;;13.93;57.71;94951.44;4203680;28;20074;-58
2023/05/02 01:15:06;;;;;;;5.05;4.28;;;;;;;13.96;57.52;94951.13;4225672;28;20127;-59
2023/05/02 01:17:11;;;;;;;6.45;4.30;;;;;;;13.90;57.72;94947.34;4223595;28;20170;-59
2023/05/02 01:19:21;;;;;;;7.72;4.40;;;;;;;13.87;57.75;94950.34;4208478;28;20048;-60
2023/05/02 01:21:23;;;;;;;5.00;4.47;;;;;;;13.91;57.60;94953.44;4211271;28;20048;-60
2023/05/02 01:23:33;;;;;;;5.97;4.65;;;;;;;13.91;57.68;94943.72;4203826;28;20686;-60
2023/05/02 01:26:01;;;;;;;4.65;3.80;;;;;;;13.90;57.75;94939.44;4217047;28;20091;-60
2023/05/02 01:28:24;;;;;;;6.63;4.90;;;;;;;13.71;58.28;94938.06;4225455;28;20048;-58
2023/05/02 01:30:28;;;;;;;6.28;4.82;;;;;;;13.64;58.48;94934.50;4222557;28;20050;-60
2023/05/02 01:32:32;;;;;;;8.65;4.82;;;;;;;13.49;59.12;94937.03;4218909;28;20040;-59
2023/05/02 01:34:36;;;;;;;5.88;4.50;;;;;;;13.38;59.53;94934.75;4220384;28;20052;-56
2023/05/02 01:36:45;;;;;;;;;;;;;;;13.41;59.48;94944.13;4219898;28;20083;-58
2023/05/02 01:38:48;;;;;;;4.57;4.18;;;;;;;13.42;59.66;94936.06;4223530;28;20332;-59
2023/05/02 01:40:50;;;;;;;4.85;4.30;;;;;;;13.45;59.64;94946.25;4223030;28;20343;-57
2023/05/02 01:42:53;;;;;;;5.78;4.60;;;;;;;13.15;60.45;94949.63;4220804;28;20044;-61
2023/05/02 01:44:55;;;;;;;6.22;4.88;;;;;;;13.15;60.90;94947.78;4215807;28;20043;-61
2023/05/02 01:46:58;;;;;;;5.80;4.70;;;;;;;13.07;61.14;94950.44;4226954;28;20128;-59
2023/05/02 01:49:02;;;;;;;5.00;4.50;;;;;;;13.13;60.58;94955.03;4219648;28;20521;-59
2023/05/02 01:51:04;;;;;;;5.82;4.90;;;;;;;13.18;60.72;94950.06;4219051;28;20076;-57
2023/05/02 01:53:07;;;;;;;5.07;4.47;;;;;;;13.09;61.08;94951.09;4226036;28;20144;-61
2023/05/02 01:55:11;;;;;;;6.05;4.97;;;;;;;13.06;60.89;94946.19;4225013;28;20052;-59
2023/05/02 01:57:14;;;;;;;4.80;4.20;;;;;;;13.04;61.39;94945.53;4202000;28;20071;-60
2023/05/02 01:59:19;;;;;;;5.97;4.43;;;;;;;12.94;61.14;94939.63;4211706;28;20154;-59
2023/05/02 02:01:23;;;;;;;5.80;4.93;;;;;;;12.90;61.44;94941.75;4224767;28;20600;-61
2023/05/02 02:03:27;;;;;;;7.97;5.13;;;;;;;12.98;61.42;94938.31;4218196;28;20074;-59
2023/05/02 02:05:29;;;;;;;6.45;4.25;;;;;;;12.97;61.21;94937.50;4217466;28;20044;-60
2023/05/02 02:07:31;;;;;;;8.93;4.85;;;;;;;12.96;61.62;94941.09;4223087;28;20047;-56
2023/05/02 02:09:33;;;;;;;5.70;5.10;;;;;;;12.99;61.37;94943.41;4224668;28;20533;-57
2023/05/02 02:12:08;;;;;;;6.32;4.70;;;;;;;13.03;61.50;94944.69;4222894;28;20048;-60
2023/05/02 02:14:17;;;;;;;6.63;4.57;;;;;;;12.95;61.51;94936.84;4185836;28;20055;-57
2023/05/02 02:16:23;;;;;;;5.43;4.72;;;;;;;12.88;61.96;94938.47;4218814;28;20047;-58
2023/05/02 02:18:26;;;;;;;8.57;4.97;;;;;;;12.88;61.50;94934.06;4212546;28;20048;-58
2023/05/02 02:20:28;;;;;;;6.00;4.50;;;;;;;12.85;62.01;94933.56;4226066;28;20101;-60
2023/05/02 02:22:33;;;;;;;7.85;5.22;;;;;;;12.85;61.67;94937.00;4215256;27;20498;-59
2023/05/02 02:24:36;;;;;;;5.72;5.18;;;;;;;12.82;61.69;94939.97;4212373;28;20051;-60
2023/05/02 02:26:38;;;;;;;5.40;4.90;;;;;;;12.85;61.80;94942.25;4210664;28;20115;-58
2023/05/02 02:28:40;;;;;;;7.45;4.75;;;;;;;12.77;61.86;94934.38;4218032;28;20044;-59
2023/05/02 02:30:41;;;;;;;5.90;5.30;;;;;;;12.75;61.81;94946.06;4216716;28;20132;-57
2023/05/02 02:32:43;;;;;;;6.07;5.15;;;;;;;12.72;61.95;94941.16;4218605;28;20090;-58
2023/05/02 02:34:45;;;;;;;6.60;4.90;;;;;;;12.69;62.21;94940.50;4228059;28;20104;-59
2023/05/02 02:36:57;;;;;;;5.47;4.97;;;;;;;12.74;61.98;94933.91;4225415;28;20059;-60
2023/05/02 02:39:19;;;;;;;5.40;4.88;;;;;;;12.80;62.16;94943.75;4220200;28;20048;-62
2023/05/02 02:41:27;;;;;;;6.32;5.00;;;;;;;12.87;61.53;94950.00;4225063;28;20533;-64
2023/05/02 02:44:06;;;;;;;6.80;5.30;;;;;;;12.79;62.04;94950.81;4213017;28;20048;-61
2023/05/02 02:46:42;;;;;;;6.50;5.32;;;;;;;12.77;61.69;94951.97;4221271;28;20508;-61
2023/05/02 02:48:47;;;;;;;6.18;5.43;;;;;;;12.68;62.02;94949.34;4215772;28;20040;-62
2023/05/02 02:50:58;;;;;;;7.13;5.45;;;;;;;12.73;62.10;94959.34;4222759;28;20059;-61
2023/05/02 02:53:08;;;;;;;7.32;5.25;;;;;;;12.73;62.13;94955.91;4214739;28;20051;-58
2023/05/02 02:55:28;;;;;;;8.35;5.32;;;;;;;12.72;61.72;94959.53;4218584;28;20073;-60
2023/05/02 02:57:40;;;;;;;7.40;5.60;;;;;;;12.69;62.11;94963.31;4199021;28;20040;-61
2023/05/02 02:59:48;;;;;;;8.07;5.55;;;;;;;12.74;62.12;94965.47;4208469;28;20709;-61
2023/05/02 03:02:01;;;;;;;6.85;5.47;;;;;;;12.84;62.02;94971.34;4218137;28;20052;-61
2023/05/02 03:04:05;;;;;;;6.65;5.35;;;;;;;12.77;62.14;94965.13;4221373;28;20047;-61
2023/05/02 03:06:06;;;;;;;;;;;;;;;12.85;61.68;94973.00;4219094;28;20055;-61
2023/05/02 03:08:08;;;;;;;8.93;5.50;;;;;;;12.85;61.89;94978.25;4217893;28;19919;-57
2023/05/02 03:10:10;;;;;;;6.05;5.45;;;;;;;12.88;61.79;94978.75;4223247;28;20109;-56
2023/05/02 03:12:12;;;;;;;6.15;4.75;;;;;;;12.91;61.61;94986.31;4227281;28;20154;-60
2023/05/02 03:14:14;;;;;;;6.70;5.28;;;;;;;12.87;61.38;94984.19;4227135;28;20480;-59
2023/05/02 03:16:31;;;;;;;5.93;5.32;;;;;;;12.88;61.75;94991.91;4215517;28;20690;-62
2023/05/02 03:18:33;;;;;;;7.38;6.07;;;;;;;12.85;61.75;94994.84;4214174;28;20474;-59
2023/05/02 03:20:35;;;;;;;9.85;5.53;;;;;;;12.89;61.61;94996.16;4226602;28;20560;-58
2023/05/02 03:22:37;;;;;;;7.28;5.65;;;;;;;12.94;61.40;94992.22;4224203;28;20089;-59
2023/05/02 03:24:38;;;;;;;7.70;5.25;;;;;;;12.98;61.55;94991.72;4195261;28;20697;-59
2023/05/02 03:26:40;;;;;;;6.85;5.30;;;;;;;13.04;61.21;94995.50;4226364;27;20467;-60
2023/05/02 03:28:45;;;;;;;9.65;6.28;;;;;;;13.04;61.38;94990.25;4220471;28;20100;-59
2023/05/02 03:30:47;;;;;;;7.82;5.80;;;;;;;13.04;61.03;94996.31;4223485;28;20055;-63
2023/05/02 03:32:48;;;;;;;6.53;5.93;;;;;;;13.02;61.59;94998.28;4220004;28;20070;-59
2023/05/02 03:34:50;;;;;;;7.50;5.32;;;;;;;13.06;61.47;94996.97;4226971;28;20481;-60
2023/05/02 03:36:52;;;;;;;6.60;5.35;;;;;;;13.11;61.27;94993.84;4224588;28;20048;-60
2023/05/02 03:38:53;;;;;;;6.43;5.75;;;;;;;13.17;60.99;95000.25;4226462;28;20053;-60
2023/05/02 03:40:57;;;;;;;7.15;5.60;;;;;;;13.19;60.76;94991.19;4224817;28;20236;-62
2023/05/02 03:42:59;;;;;;;8.75;5.70;;;;;;;13.23;60.49;95000.38;4225946;28;20071;-61
2023/05/02 03:45:01;;;;;;;8.48;5.63;;;;;;;13.31;60.59;94992.53;4222397;28;20044;-59
2023/05/02 03:47:02;;;;;;;7.75;5.28;;;;;;;13.31;60.53;94992.53;4222118;28;20105;-62
2023/05/02 03:49:04;;;;;;;7.72;5.53;;;;;;;13.37;60.22;95000.72;4225408;28;20051;-59
2023/05/02 03:51:09;;;;;;;12.90;5.80;;;;;;;13.41;60.26;94997.56;4216193;28;20579;-60
2023/05/02 03:53:11;;;;;;;7.47;6.05;;;;;;;13.43;59.80;94997.41;4214167;28;20040;-60
2023/05/02 03:55:12;;;;;;;7.90;6.00;;;;;;;13.40;60.03;95000.38;4210956;28;20126;-62
2023/05/02 03:57:14;;;;;;;7.03;5.57;;;;;;;13.37;60.34;94993.63;4217200;28;20055;-58
2023/05/02 03:59:16;;;;;;;10.13;5.70;;;;;;;13.38;60.62;94997.91;4212061;28;20048;-60
2023/05/02 04:01:17;;;;;;;6.70;6.10;;;;;;;13.35;60.47;94992.97;4214720;28;20056;-61
2023/05/02 04:03:19;;;;;;;6.60;5.82;;;;;;;13.35;60.22;94992.97;4222640;28;20426;-61
2023/05/02 04:05:21;;;;;;;7.72;6.38;;;;;;;13.45;60.30;95004.13;4210758;28;20048;-60
2023/05/02 04:07:24;;;;;;;7.60;5.75;;;;;;;13.51;59.84;94997.38;4217284;28;20052;-60
2023/05/02 04:09:26;;;;;;;8.25;5.75;;;;;;;13.49;59.65;94994.91;4225669;28;20546;-60
2023/05/02 04:11:27;;;;;;;8.13;6.15;;;;;;;13.38;60.01;94997.91;4225008;28;20055;-57
2023/05/02 04:13:29;;;;;;;8.60;5.95;;;;;;;13.24;59.90;95003.84;4223157;28;20047;-60
2023/05/02 04:15:31;;;;;;;8.50;5.70;;;;;;;13.18;60.32;95001.88;4220605;28;20051;-60
2023/05/02 04:17:32;;;;;;;8.10;5.90;;;;;;;13.10;60.54;95000.09;4220230;28;20048;-59
2023/05/02 04:19:34;;;;;;;7.55;5.90;;;;;;;13.07;60.61;94995.16;4223969;28;20051;-61
2023/05/02 04:21:36;;;;;;;7.43;5.72;;;;;;;13.07;60.60;94990.69;4222952;28;20143;-58
2023/05/02 04:23:38;;;;;;;7.43;5.40;;;;;;;13.03;60.65;94994.66;4224878;28;20043;-60
2023/05/02 04:25:40;;;;;;;6.28;5.55;;;;;;;12.93;61.13;94994.03;4218128;28;20079;-61
2023/05/02 04:27:42;;;;;;;13.77;6.13;;;;;;;12.84;61.11;94995.00;4216675;28;20093;-60
2023/05/02 04:29:47;;;;;;;10.73;5.95;;;;;;;12.85;61.33;94997.47;4225556;28;20100;-59
2023/05/02 04:31:50;;;;;;;7.72;5.90;;;;;;;12.91;61.00;94994.19;4211890;28;20121;-62
2023/05/02 04:33:51;;;;;;;7.53;5.43;;;;;;;12.95;60.68;94994.69;4202364;28;20447;-58
2023/05/02 04:35:53;;;;;;;10.82;5.68;;;;;;;13.03;60.61;94997.28;4225870;28;20051;-62
2023/05/02 04:37:55;;;;;;;7.30;5.40;;;;;;;12.88;60.54;94993.69;4225015;28;20094;-62
2023/05/02 04:39:57;;;;;;;7.00;6.00;;;;;;;12.65;61.26;94994.38;4222775;28;20047;-62
2023/05/02 04:42:00;;;;;;;11.38;5.93;;;;;;;12.66;60.94;94985.50;4214572;28;20601;-63
2023/05/02 04:44:01;;;;;;;9.32;5.50;;;;;;;12.69;61.17;94993.06;4225361;28;20043;-60
2023/05/02 04:46:03;;;;;;;7.13;5.60;;;;;;;12.75;61.16;95001.25;4219391;28;20463;-62
2023/05/02 04:48:05;;;;;;;6.88;5.43;;;;;;;12.98;60.81;94999.59;4216995;28;20047;-57
2023/05/02 04:50:08;;;;;;;9.57;5.95;;;;;;;13.18;60.33;95001.88;4215841;28;20101;-57
2023/05/02 04:52:09;;;;;;;11.60;6.22;;;;;;;13.31;59.56;94996.94;4214604;28;20051;-60
2023/05/02 04:54:11;;;;;;;8.02;5.70;;;;;;;13.42;59.31;94996.59;4211152;28;20052;-60
2023/05/02 04:56:13;;;;;;;8.30;6.43;;;;;;;13.54;58.71;94996.22;4215212;28;20055;-60
2023/05/02 04:58:15;;;;;;;9.77;5.32;;;;;;;13.59;58.63;94996.53;4215446;28;20571;-62
2023/05/02 05:00:16;;;;;;;9.50;4.88;;;;;;;13.59;58.05;94993.91;4214974;28;20075;-61
2023/05/02 05:02:18;;;;;;;7.88;5.05;;;;;;;13.44;57.84;94996.41;4218312;28;20552;-60
2023/05/02 05:04:20;;;;;;;7.38;5.22;;;;;;;13.49;58.11;94997.56;4215447;28;20094;-60
2023/05/02 05:06:23;;;;;;;5.80;4.78;;;;;;;13.61;58.11;95005.06;4214091;28;20090;-60
2023/05/02 05:08:24;;;;;;;7.63;4.85;;;;;;;13.57;57.34;94990.59;4215160;28;20056;-61
2023/05/02 05:10:26;;;;;;;7.57;5.32;;;;;;;13.58;57.32;94987.81;4223923;28;20086;-60
2023/05/02 05:12:28;;;;;;;8.10;4.80;;;;;;;13.47;57.70;94996.91;4225277;28;20075;-59
2023/05/02 05:14:30;;;;;;;9.45;4.97;;;;;;;13.51;57.70;94992.94;4225665;28;20390;-61
2023/05/02 05:16:32;;;;;;;5.68;4.75;;;;;;;13.45;57.66;94990.16;4215506;28;20048;-60
2023/05/02 05:18:43;;;;;;;9.10;4.68;;;;;;;13.46;57.73;94983.91;4202126;28;20399;-59
2023/05/02 05:20:44;;;;;;;6.32;4.95;;;;;;;13.42;57.36;94991.34;4225905;28;20135;-59
2023/05/02 05:22:46;;;;;;;6.68;5.30;;;;;;;13.55;56.80;94992.59;4224272;28;20083;-61
2023/05/02 05:24:52;;;;;;;7.85;5.00;;;;;;;13.63;57.33;94997.81;4222522;28;20492;-62
2023/05/02 05:26:54;;;;;;;5.85;4.45;;;;;;;13.71;56.80;94989.91;4217033;28;20075;-60
2023/05/02 05:28:55;;;;;;;5.97;4.90;;;;;;;13.54;56.93;94997.03;4214137;28;20135;-60
2023/05/02 05:30:57;;;;;;;7.15;4.97;;;;;;;13.60;56.99;95016.59;4217691;28;20480;-61
2023/05/02 05:32:59;;;;;;;8.93;4.63;;;;;;;13.65;57.07;95003.75;4215538;28;20054;-61
2023/05/02 05:35:01;;;;;;;7.43;4.57;;;;;;;13.75;56.98;95004.38;4227227;28;20108;-61
2023/05/02 05:37:02;;;;;;;6.22;4.68;;;;;;;13.77;56.76;95004.22;4227765;28;20054;-61
2023/05/02 05:39:04;;;;;;;5.20;4.70;;;;;;;13.84;56.79;95008.59;4227602;28;20063;-61
2023/05/02 05:41:09;;;;;;;7.80;4.90;;;;;;;14.01;56.63;95013.81;4228810;28;20100;-62
2023/05/02 05:43:12;;;;;;;6.15;4.40;;;;;;;14.12;55.93;95016.84;4225787;28;20049;-62
2023/05/02 05:45:15;;;;;;;8.30;4.88;;;;;;;14.18;55.39;95009.28;4217796;28;20055;-61
2023/05/02 05:47:22;;;;;;;6.63;5.03;;;;;;;14.14;55.58;95020.13;4218158;28;20417;-62
2023/05/02 05:49:24;;;;;;;9.02;4.65;;;;;;;14.04;55.74;95016.91;4229643;28;20102;-61
2023/05/02 05:51:26;;;;;;;6.72;5.00;;;;;;;14.16;55.83;95013.91;4228682;28;20060;-62
2023/05/02 05:53:28;;;;;;;7.82;4.57;;;;;;;14.26;55.58;95023.22;4217992;28;20378;-62
2023/05/02 05:55:30;;;;;;;7.25;4.55;;;;;;;14.06;55.55;95016.72;4212404;28;20048;-63
2023/05/02 05:57:31;;;;;;;10.15;4.50;;;;;;;14.01;55.93;95021.72;4213423;28;20044;-64
2023/05/02 05:59:35;;;;;;;6.22;4.18;;;;;;;14.09;55.17;95017.22;4213932;28;20048;-64
2023/05/02 06:01:37;;;;;;;5.35;3.97;;;;;;;14.10;55.09;95018.03;4213078;28;20426;-64
2023/05/02 06:03:38;;;;;;;7.82;4.13;;;;;;;14.21;55.25;95024.72;4214902;28;20702;-65
2023/05/02 06:05:40;;;;;;;7.47;4.28;;;;;;;14.16;55.11;95024.44;4229381;28;20456;-63
2023/05/02 06:07:42;;;;;;;7.82;4.53;;;;;;;14.19;54.89;95030.16;4218786;27;20136;-63
2023/05/02 06:09:43;;;;;;;5.75;4.28;;;;;;;14.24;55.02;95033.13;4224615;28;20486;-62
2023/05/02 06:11:45;;;;;;;5.85;4.10;;;;;;;14.40;54.42;95039.28;4226902;28;20101;-63
2023/05/02 06:13:46;;;;;;;5.95;4.50;;;;;;;14.54;54.45;95030.63;4227508;28;20082;-62
2023/05/02 06:15:48;;;;;;;7.88;4.75;;;;;;;14.46;53.49;95025.41;4229687;28;20194;-63
2023/05/02 06:17:50;;;;;;;9.05;4.72;;;;;;;14.36;53.88;95024.81;4226498;27;20052;-65
2023/05/02 06:19:52;;;;;;;7.40;4.47;;;;;;;14.41;53.45;95038.25;4226233;28;20040;-63
2023/05/02 06:21:54;;;;;;;10.35;4.55;;;;;;;14.48;53.17;95026.88;4226186;28;20066;-64
2023/05/02 06:23:56;;;;;;;6.32;4.07;;;;;;;14.66;52.62;95031.88;4227402;28;20076;-62
2023/05/02 06:25:59;;;;;;;5.90;4.15;;;;;;;14.77;52.66;95024.56;4225948;28;20442;-64
2023/05/02 06:28:01;;;;;;;6.25;4.38;;;;;;;14.70;52.29;95019.97;4218673;28;20413;-63
2023/05/02 06:30:03;;;;;;;5.75;4.03;;;;;;;14.83;51.86;95031.75;4227296;28;20058;-63
2023/05/02 06:32:05;;;;;;;6.95;4.30;;;;;;;14.98;52.30;95031.81;4213892;28;20044;-64
2023/05/02 06:34:07;;;;;;;6.38;3.90;;;;;;;15.04;51.96;95025.81;4214423;28;20101;-63
2023/05/02 06:36:08;;;;;;;4.88;3.42;;;;;;;14.97;50.87;95033.63;4212287;28;20568;-62
2023/05/02 06:38:10;;;;;;;6.53;4.30;;;;;;;14.86;51.68;95028.75;4217339;28;20048;-64
2023/05/02 06:40:12;;;;;;;7.05;3.92;;;;;;;14.95;51.36;95031.16;4218620;28;20117;-64
2023/05/02 06:42:14;;;;;;;5.78;3.70;;;;;;;15.18;51.45;95024.19;4218306;28;20166;-64
2023/05/02 06:44:16;;;;;;;9.35;4.15;;;;;;;15.12;50.85;95028.34;4216924;28;20040;-64
2023/05/02 06:46:19;;;;;;;7.85;3.83;;;;;;;15.10;50.75;95025.94;4220153;28;20167;-63
2023/05/02 06:48:21;;;;;;;8.95;3.83;;;;;;;15.00;50.98;95030.63;4227225;28;20074;-68
2023/05/02 06:50:22;;;;;;;6.82;3.42;;;;;;;15.07;50.92;95023.63;4228165;28;20048;-63
2023/05/02 06:52:24;;;;;;;7.93;3.65;;;;;;;15.31;50.47;95029.69;4224218;28;20089;-62
2023/05/02 06:54:26;;;;;;;6.35;3.65;;;;;;;15.52;50.25;95029.78;4219715;28;20047;-65
2023/05/02 06:56:27;;;;;;;3.97;3.13;;;;;;;15.34;49.41;95026.69;4227296;28;20086;-63
2023/05/02 06:58:29;;;;;;;5.10;3.35;;;;;;;15.45;49.33;95023.59;4227253;28;20055;-63
2023/05/02 07:00:31;;;;;;;6.43;3.58;;;;;;;15.51;49.92;95028.16;4224560;28;20113;-63
2023/05/02 07:02:33;;;;;;;6.53;3.55;;;;;;;15.45;49.30;95025.44;4218263;28;20120;-63
2023/05/02 07:04:34;;;;;;;16.52;11.05;;;;;;;15.67;49.47;95021.06;4228348;27;20054;-64
2023/05/02 07:06:36;;;;;;;7.78;4.05;;;;;;;15.89;48.83;95020.16;4226509;27;20051;-63
2023/05/02 07:08:38;;;;;;;4.88;3.38;;;;;;;16.06;48.21;95025.25;4228273;28;20040;-64
2023/05/02 07:10:40;;;;;;;5.53;3.25;;;;;;;16.22;48.29;95032.13;4227293;28;20481;-63
2023/05/02 07:12:41;;;;;;;6.80;4.32;;;;;;;16.31;47.61;95023.91;4217171;28;20052;-63
2023/05/02 07:14:45;;;;;;;4.22;3.33;;;;;;;16.18;46.92;95037.78;4223031;28;20123;-63
2023/05/02 07:16:47;;;;;;;5.20;3.38;;;;;;;16.35;46.94;95029.66;4222893;28;20056;-63
2023/05/02 07:18:49;;;;;;;7.25;3.88;;;;;;;16.32;46.96;95038.75;4213062;28;20048;-63
2023/05/02 07:20:50;;;;;;;8.13;3.40;;;;;;;16.34;46.77;95041.22;4224909;28;20125;-63
2023/05/02 07:22:52;;;;;;;7.32;3.00;;;;;;;16.40;46.47;95037.84;4224210;28;20059;-63
2023/05/02 07:24:59;;;;;;;9.93;3.40;;;;;;;16.45;46.12;95032.78;4212946;28;20044;-62
2023/05/02 07:27:02;;;;;;;19.10;3.63;;;;;;;16.27;46.14;95033.22;4224761;28;20051;-63
2023/05/02 07:29:05;;;;;;;11.00;3.75;;;;;;;16.52;46.12;95030.22;4220348;28;20083;-65
2023/05/02 07:31:07;;;;;;;11.77;4.47;;;;;;;16.62;45.65;95038.66;4215561;28;20592;-63
2023/05/02 07:33:08;;;;;;;6.47;3.05;;;;;;;16.73;45.25;95040.81;4217561;28;20048;-64
2023/05/02 07:35:10;;;;;;;18.92;4.50;;;;;;;16.69;45.26;95041.38;4225488;28;20047;-62
2023/05/02 07:37:12;;;;;;;9.20;3.63;;;;;;;16.68;45.05;95037.13;4226142;28;20043;-62
2023/05/02 07:39:13;;;;;;;55.28;7.30;;;;;;;16.69;45.93;95041.38;4219401;28;20135;-62
2023/05/02 07:41:15;;;;;;;7.15;4.03;;;;;;;16.90;45.26;95038.78;4212697;28;20109;-63
2023/05/02 07:43:17;;;;;;;10.80;3.20;;;;;;;17.02;45.13;95035.63;4212336;28;20105;-62
2023/05/02 07:45:18;;;;;;;5.80;3.08;;;;;;;17.07;44.63;95049.91;4216736;28;20415;-64
2023/05/02 07:47:20;;;;;;;5.40;3.10;;;;;;;17.24;44.40;95036.41;4216968;28;20549;-62
2023/05/02 07:49:22;;;;;;;3.88;2.78;;;;;;;17.24;44.37;95053.13;4222028;28;20115;-64
2023/05/02 07:51:25;;;;;;;5.30;2.90;;;;;;;17.30;43.61;95044.41;4216298;28;20064;-63
2023/05/02 07:53:26;;;;;;;5.17;3.50;;;;;;;17.30;43.95;95038.31;4216878;28;20054;-64
2023/05/02 07:55:29;;;;;;;4.30;3.10;;;;;;;17.36;43.51;95042.84;4217750;28;20287;-63
2023/05/02 07:57:31;;;;;;;6.93;3.00;;;;;;;17.27;43.48;95039.50;4218965;28;20048;-64
2023/05/02 07:59:32;;;;;;;6.45;3.10;;;;;;;17.45;44.49;95041.66;4216766;28;20047;-63
2023/05/02 08:01:35;;;;;;;6.28;2.67;;;;;;;17.55;43.43;95042.16;4215719;28;20206;-64
2023/05/02 08:03:36;;;;;;;6.32;2.85;;;;;;;17.71;43.01;95034.91;4218878;28;20084;-63
2023/05/02 08:05:38;;;;;;;8.82;2.58;;;;;;;17.83;42.52;95036.00;4220522;28;20047;-63
2023/05/02 08:07:40;;;;;;;8.10;2.90;;;;;;;17.78;42.49;95028.63;4217860;28;20048;-62
2023/05/02 08:09:42;;;;;;;49.58;28.23;;;;;;;17.63;43.26;95035.06;4226018;28;20051;-61
2023/05/02 08:11:43;;;;;;;4.22;3.22;;;;;;;17.63;43.47;95033.22;4223070;28;20069;-60
2023/05/02 08:13:45;;;;;;;6.28;3.30;;;;;;;17.67;43.99;95044.25;4226946;28;20183;-68
2023/05/02 08:15:47;;;;;;;6.13;3.40;;;;;;;17.78;43.07;95033.09;4225556;28;20128;-63
2023/05/02 08:17:48;;;;;;;4.97;3.05;;;;;;;17.59;42.97;95034.63;4225202;28;20196;-62
2023/05/02 08:19:50;;;;;;;6.70;3.03;;;;;;;17.48;43.32;95043.91;4212295;28;20084;-63
2023/05/02 08:21:55;;;;;;;5.22;2.63;;;;;;;17.47;43.41;95044.13;4225723;28;20053;-64
2023/05/02 08:23:57;;;;;;;5.55;3.08;;;;;;;17.24;43.63;95044.34;4220969;28;20048;-63
2023/05/02 08:25:59;;;;;;;4.50;2.88;;;;;;;17.16;43.79;95038.19;4222842;28;20513;-63
2023/05/02 08:28:01;;;;;;;4.53;3.17;;;;;;;17.14;44.24;95034.09;4221081;28;20123;-63
2023/05/02 08:30:03;;;;;;;8.77;2.92;;;;;;;17.19;43.96;95044.94;4227078;28;20048;-62
2023/05/02 08:32:05;;;;;;;17.20;3.50;;;;;;;17.30;43.95;95035.66;4213448;28;20054;-65
2023/05/02 08:34:07;;;;;;;5.90;3.00;;;;;;;17.34;44.17;95032.41;4226255;28;20043;-62
2023/05/02 08:36:13;;;;;;;6.30;3.22;;;;;;;17.34;43.83;95044.84;4225519;28;20059;-63
2023/05/02 08:38:14;;;;;;;6.68;3.50;;;;;;;17.42;43.69;95034.09;4223366;28;20572;-64
2023/05/02 08:40:16;;;;;;;20.77;11.70;;;;;;;17.67;43.31;95033.66;4226435;28;20097;-62
2023/05/02 08:42:32;;;;;;;4.70;3.15;;;;;;;17.98;42.48;95039.38;4225437;28;20048;-64
2023/05/02 08:44:34;;;;;;;5.07;3.28;;;;;;;18.30;42.67;95037.03;4218163;28;20147;-64
2023/05/02 08:46:40;;;;;;;7.40;3.45;;;;;;;18.35;42.58;95029.31;4225219;28;20074;-62
2023/05/02 08:48:43;;;;;;;6.78;3.42;;;;;;;18.27;41.89;95031.34;4225686;28;20124;-64
2023/05/02 08:50:47;;;;;;;7.13;3.53;;;;;;;18.30;41.68;95034.38;4212427;28;20048;-71
2023/05/02 08:52:49;;;;;;;6.43;2.88;;;;;;;18.37;41.88;95029.94;4221160;28;20050;-62
2023/05/02 08:54:51;;;;;;;5.18;2.97;;;;;;;18.50;41.07;95023.84;4212047;28;20036;-62
2023/05/02 08:56:53;;;;;;;6.50;3.08;;;;;;;18.14;41.12;95029.44;4209562;28;20101;-62
2023/05/02 08:58:55;;;;;;;7.22;3.17;;;;;;;18.32;41.42;95027.03;4213654;28;20122;-63
2023/05/02 09:01:00;;;;;;;4.15;3.03;;;;;;;17.84;41.45;95024.41;4211797;28;20056;-64
2023/05/02 09:03:05;;;;;;;9.65;3.45;;;;;;;17.91;41.95;95025.25;4211783;28;20048;-62
2023/05/02 09:05:07;;;;;;;6.15;3.00;;;;;;;18.17;42.07;95019.25;4210864;28;20052;-65
2023/05/02 09:07:09;;;;;;;5.97;2.97;;;;;;;18.30;42.32;95015.00;4210363;28;20091;-63
2023/05/02 09:09:11;;;;;;;5.40;3.15;;;;;;;18.37;42.06;95014.03;4216808;28;20043;-64
2023/05/02 09:11:13;;;;;;;4.35;2.85;;;;;;;18.37;41.72;95021.16;4222985;28;20051;-63
2023/05/02 09:13:30;;;;;;;7.65;3.58;;;;;;;18.47;41.12;95012.81;4229289;28;20055;-63
2023/05/02 09:15:32;;;;;;;11.45;7.68;;;;;;;18.50;41.18;95012.41;4209521;28;20056;-62
2023/05/02 09:17:45;;;;;;;11.30;3.85;;;;;;;18.56;41.49;95022.22;4229379;27;20501;-65
2023/05/02 09:19:58;;;;;;;10.40;2.83;;;;;;;18.71;40.74;95019.41;4213974;28;20083;-63
2023/05/02 09:22:00;;;;;;;5.97;3.00;;;;;;;18.74;40.80;95017.16;4229187;28;20135;-62
2023/05/02 09:24:15;;;;;;;3.30;2.65;;;;;;;18.68;40.40;95017.16;4229576;28;20195;-64
2023/05/02 09:26:21;;;;;;;6.82;2.50;;;;;;;18.60;40.00;95012.84;4214233;28;20125;-64
2023/05/02 09:28:38;;;;;;;6.95;2.92;;;;;;;18.60;40.08;95010.19;4217392;28;20478;-63
2023/05/02 09:30:40;;;;;;;5.57;2.80;;;;;;;18.55;40.05;95005.50;4224783;28;20054;-63
2023/05/02 09:32:45;;;;;;;3.58;2.72;;;;;;;18.52;40.05;95013.03;4212037;28;20463;-64
2023/05/02 09:35:06;;;;;;;6.25;3.05;;;;;;;18.70;39.72;95015.13;4228450;28;20047;-63
2023/05/02 09:37:09;;;;;;;4.22;2.65;;;;;;;18.80;39.25;95004.97;4204911;28;20079;-64
2023/05/02 09:39:15;;;;;;;3.13;2.50;;;;;;;18.58;38.82;95012.22;4228115;28;20470;-63
2023/05/02 09:41:18;;;;;;;4.15;2.30;;;;;;;18.35;39.15;95002.78;4216989;28;20047;-65
2023/05/02 09:43:20;;;;;;;3.22;2.45;;;;;;;17.90;39.38;94991.81;4226000;28;20074;-62
2023/05/02 09:45:25;;;;;;;5.68;2.35;;;;;;;17.72;40.01;94994.94;4222403;28;20398;-62